Time;durP1;ratioP1;P1;durP2;ratioP2;P2;SDS_P1;SDS_P2;PMS_P1;PMS_P2;Temp;Humidity;BMP_temperature;BMP_pressure;BME280_temperature;BME280_humidity;BME280_pressure;Samples;Min_cycle;Max_cycle;Signal;HPM_P1;HPM_P2
2021/05/12 00:01:08;;;;;;;1.90;0.93;;;;;;;;;;4915121;28;20500;-77
2021/05/12 00:03:36;;;;;;;2.30;0.95;;;;;;;;;;4928435;28;20115;-76
2021/05/12 00:06:03;;;;;;;2.20;1.10;;;;;;;;;;4922241;28;20115;-77
2021/05/12 00:08:29;;;;;;;1.75;0.98;;;;;;;;;;4933244;28;20525;-76
2021/05/12 00:10:56;;;;;;;3.00;1.17;;;;;;;;;;4928797;28;20047;-76
2021/05/12 00:13:22;;;;;;;2.65;1.10;;;;;;;;;;4919942;28;21302;-76
2021/05/12 00:15:48;;;;;;;2.53;1.17;;;;;;;;;;4928248;28;20102;-77
2021/05/12 00:18:26;;;;;;;2.80;1.40;;;;;;;;;;4922000;28;20067;-76
2021/05/12 00:20:53;;;;;;;2.70;1.10;;;;;;;;;;4925260;28;20032;-78
2021/05/12 00:23:24;;;;;;;3.45;1.40;;;;;;;;;;4937794;28;20782;-77
2021/05/12 00:25:50;;;;;;;2.38;1.10;;;;;;;;;;4918946;28;20067;-77
2021/05/12 00:28:17;;;;;;;2.15;1.30;;;;;;;;;;4925478;28;20547;-77
2021/05/12 00:30:43;;;;;;;2.38;1.30;;;;;;;;;;4924539;28;20071;-77
2021/05/12 00:33:11;;;;;;;2.33;1.27;;;;;;;;;;4933885;28;20553;-77
2021/05/12 00:35:38;;;;;;;3.08;1.63;;;;;;;;;;4929410;28;20488;-78
2021/05/12 00:38:04;;;;;;;2.53;1.15;;;;;;;;;;4917863;28;20067;-78
2021/05/12 00:40:30;;;;;;;2.90;1.20;;;;;;;;;;4920170;28;20074;-77
2021/05/12 00:43:00;;;;;;;2.85;1.35;;;;;;;;;;4928254;28;20511;-76
2021/05/12 00:45:26;;;;;;;2.58;1.20;;;;;;;;;;4922931;28;20126;-77
2021/05/12 00:47:52;;;;;;;3.65;1.20;;;;;;;;;;4917856;28;20614;-77
2021/05/12 00:50:20;;;;;;;2.50;1.20;;;;;;;;;;4922633;28;20067;-76
2021/05/12 00:52:46;;;;;;;3.13;1.23;;;;;;;;;;4917565;29;20075;-77
2021/05/12 00:55:13;;;;;;;3.70;1.45;;;;;;;;;;4926018;28;20071;-76
2021/05/12 00:57:40;;;;;;;1.90;1.02;;;;;;;;;;4924520;28;20067;-77
2021/05/12 01:00:07;;;;;;;2.50;1.30;;;;;;;;;;4929825;28;20087;-77
2021/05/12 01:02:34;;;;;;;3.45;1.30;;;;;;;;;;4931780;28;20445;-77
2021/05/12 01:05:00;;;;;;;2.17;1.27;;;;;;;;;;4926988;28;20980;-77
2021/05/12 01:07:27;;;;;;;2.08;1.17;;;;;;;;;;4939936;28;20079;-77
2021/05/12 01:09:54;;;;;;;3.88;1.38;;;;;;;;;;4943464;28;20059;-77
2021/05/12 01:12:20;;;;;;;4.05;1.40;;;;;;;;;;4923806;28;20067;-77
2021/05/12 01:14:47;;;;;;;3.72;1.33;;;;;;;;;;4927887;28;20171;-78
2021/05/12 01:17:14;;;;;;;2.20;1.40;;;;;;;;;;4931709;28;20468;-77
2021/05/12 01:19:42;;;;;;;2.55;1.20;;;;;;;;;;4919611;28;20070;-77
2021/05/12 01:22:09;;;;;;;3.80;1.35;;;;;;;;;;4938783;28;20075;-77
2021/05/12 01:24:36;;;;;;;3.58;1.20;;;;;;;;;;4920727;28;20068;-77
2021/05/12 01:27:03;;;;;;;3.38;1.60;;;;;;;;;;4925751;28;20067;-77
2021/05/12 01:29:30;;;;;;;3.47;1.30;;;;;;;;;;4919187;28;20137;-77
2021/05/12 01:31:56;;;;;;;3.03;1.20;;;;;;;;;;4921632;28;20142;-78
2021/05/12 01:34:23;;;;;;;3.50;1.30;;;;;;;;;;4926279;28;20063;-77
2021/05/12 01:36:51;;;;;;;4.00;1.55;;;;;;;;;;4945326;28;20776;-77
2021/05/12 01:39:18;;;;;;;4.28;1.65;;;;;;;;;;4924750;28;20055;-77
2021/05/12 01:41:44;;;;;;;3.40;1.50;;;;;;;;;;4937027;28;20059;-78
2021/05/12 01:44:11;;;;;;;4.13;1.30;;;;;;;;;;4931627;28;20055;-77
2021/05/12 01:46:38;;;;;;;2.88;1.20;;;;;;;;;;4930111;28;20063;-77
2021/05/12 01:49:04;;;;;;;2.30;1.30;;;;;;;;;;4918513;28;20074;-77
2021/05/12 01:51:31;;;;;;;2.83;1.40;;;;;;;;;;4920464;28;20087;-77
2021/05/12 01:53:58;;;;;;;3.92;1.40;;;;;;;;;;4929840;28;20500;-78
2021/05/12 01:56:24;;;;;;;2.65;1.20;;;;;;;;;;4920581;28;20126;-76
2021/05/12 01:58:50;;;;;;;3.65;1.38;;;;;;;;;;4924413;28;20071;-77
2021/05/12 02:01:17;;;;;;;3.72;1.60;;;;;;;;;;4920774;28;20063;-77
2021/05/12 02:03:43;;;;;;;3.13;1.40;;;;;;;;;;4944534;28;20145;-76
2021/05/12 02:06:10;;;;;;;3.35;1.42;;;;;;;;;;4932330;28;20067;-76
2021/05/12 02:08:36;;;;;;;3.97;1.50;;;;;;;;;;4929649;28;20039;-76
2021/05/12 02:11:04;;;;;;;3.45;1.35;;;;;;;;;;4927401;28;20074;-77
2021/05/12 02:13:31;;;;;;;5.40;1.52;;;;;;;;;;4934591;28;20529;-77
2021/05/12 02:15:58;;;;;;;2.83;1.40;;;;;;;;;;4921196;28;20725;-77
2021/05/12 02:18:25;;;;;;;3.35;1.50;;;;;;;;;;4940670;28;20056;-77
2021/05/12 02:20:52;;;;;;;4.32;1.70;;;;;;;;;;4930397;28;20050;-77
2021/05/12 02:23:20;;;;;;;6.20;1.70;;;;;;;;;;4940371;28;20074;-78
2021/05/12 02:25:46;;;;;;;2.78;1.55;;;;;;;;;;4917653;28;20067;-77
2021/05/12 02:28:13;;;;;;;2.40;1.23;;;;;;;;;;4921623;28;20063;-77
2021/05/12 02:30:40;;;;;;;5.10;1.63;;;;;;;;;;4930281;28;20063;-77
2021/05/12 02:33:07;;;;;;;3.30;1.30;;;;;;;;;;4916565;28;20805;-77
2021/05/12 02:35:33;;;;;;;3.78;1.23;;;;;;;;;;4929537;28;20063;-77
2021/05/12 02:38:00;;;;;;;4.07;1.70;;;;;;;;;;4936334;28;20547;-76
2021/05/12 02:40:27;;;;;;;3.15;1.40;;;;;;;;;;4936842;28;20064;-78
2021/05/12 02:42:54;;;;;;;2.60;1.48;;;;;;;;;;4940019;28;20485;-78
2021/05/12 02:45:21;;;;;;;3.33;1.58;;;;;;;;;;4920653;28;20469;-78
2021/05/12 02:47:57;;;;;;;3.55;1.63;;;;;;;;;;4924274;28;20064;-77
2021/05/12 02:50:29;;;;;;;3.95;1.50;;;;;;;;;;4935266;28;20381;-77
2021/05/12 02:52:55;;;;;;;4.15;1.50;;;;;;;;;;4916524;28;20079;-77
2021/05/12 02:55:22;;;;;;;3.03;1.40;;;;;;;;;;4924579;28;20047;-76
2021/05/12 02:57:49;;;;;;;3.92;1.50;;;;;;;;;;4939617;28;20064;-78
2021/05/12 03:00:16;;;;;;;2.92;1.50;;;;;;;;;;4913872;28;20115;-78
2021/05/12 03:02:43;;;;;;;3.83;1.45;;;;;;;;;;4917309;28;20129;-78
2021/05/12 03:05:10;;;;;;;3.95;1.58;;;;;;;;;;4922645;28;20540;-78
2021/05/12 03:07:36;;;;;;;5.10;1.92;;;;;;;;;;4925512;28;20090;-78
2021/05/12 03:10:05;;;;;;;2.95;1.45;;;;;;;;;;4922941;28;20451;-78
2021/05/12 03:12:31;;;;;;;3.15;1.88;;;;;;;;;;4925315;28;20043;-78
2021/05/12 03:14:58;;;;;;;3.28;1.60;;;;;;;;;;4916107;28;20468;-78
2021/05/12 03:17:24;;;;;;;2.42;1.30;;;;;;;;;;4908366;29;20072;-77
2021/05/12 03:19:51;;;;;;;6.05;1.50;;;;;;;;;;4929893;28;20063;-78
2021/05/12 03:22:17;;;;;;;3.13;1.45;;;;;;;;;;4926169;28;20043;-78
2021/05/12 03:24:43;;;;;;;3.50;1.60;;;;;;;;;;4937189;28;20052;-78
2021/05/12 03:27:10;;;;;;;3.55;1.67;;;;;;;;;;4933733;28;20577;-78
2021/05/12 03:29:36;;;;;;;3.88;1.70;;;;;;;;;;4932128;28;20114;-78
2021/05/12 03:32:03;;;;;;;3.47;1.65;;;;;;;;;;4925450;28;20095;-78
2021/05/12 03:34:29;;;;;;;3.80;1.52;;;;;;;;;;4924155;28;20075;-78
2021/05/12 03:36:56;;;;;;;4.00;1.55;;;;;;;;;;4927091;28;20123;-80
2021/05/12 03:39:22;;;;;;;2.53;1.48;;;;;;;;;;4914906;28;20147;-80
2021/05/12 03:41:49;;;;;;;5.10;1.73;;;;;;;;;;4938865;28;20059;-78
2021/05/12 03:44:15;;;;;;;2.97;1.63;;;;;;;;;;4919778;28;20159;-77
2021/05/12 03:46:42;;;;;;;4.28;1.60;;;;;;;;;;4917310;28;20102;-77
2021/05/12 03:49:08;;;;;;;4.40;1.88;;;;;;;;;;4940339;28;20067;-77
2021/05/12 03:51:34;;;;;;;3.70;1.73;;;;;;;;;;4925715;28;20499;-77
2021/05/12 03:54:01;;;;;;;5.05;1.60;;;;;;;;;;4918460;28;20094;-78
2021/05/12 03:56:27;;;;;;;4.93;1.70;;;;;;;;;;4923972;28;20086;-78
2021/05/12 03:58:53;;;;;;;3.15;1.80;;;;;;;;;;4921332;28;20078;-78
2021/05/12 04:01:20;;;;;;;5.05;1.90;;;;;;;;;;4923181;28;20507;-77
2021/05/12 04:03:46;;;;;;;3.25;1.70;;;;;;;;;;4920060;28;20059;-77
2021/05/12 04:06:13;;;;;;;4.70;2.00;;;;;;;;;;4917816;28;20118;-78
2021/05/12 04:08:39;;;;;;;2.85;1.58;;;;;;;;;;4916129;28;20075;-77
2021/05/12 04:11:06;;;;;;;5.78;1.70;;;;;;;;;;4913904;28;20588;-77
2021/05/12 04:13:32;;;;;;;4.38;1.83;;;;;;;;;;4919811;28;20068;-76
2021/05/12 04:15:58;;;;;;;3.55;1.60;;;;;;;;;;4918248;28;20062;-76
2021/05/12 04:18:27;;;;;;;3.35;1.63;;;;;;;;;;4921573;28;20131;-77
2021/05/12 04:20:53;;;;;;;3.97;1.70;;;;;;;;;;4925446;28;20711;-80
2021/05/12 04:23:20;;;;;;;3.25;1.77;;;;;;;;;;4930210;28;20032;-80
2021/05/12 04:25:46;;;;;;;2.47;1.67;;;;;;;;;;4931510;28;20091;-80
2021/05/12 04:28:13;;;;;;;4.22;1.50;;;;;;;;;;4918625;28;20082;-79
2021/05/12 04:30:39;;;;;;;3.80;1.67;;;;;;;;;;4912428;29;20139;-79
2021/05/12 04:33:06;;;;;;;4.15;1.90;;;;;;;;;;4933673;28;20072;-79
2021/05/12 04:35:32;;;;;;;3.70;1.70;;;;;;;;;;4931084;28;20040;-80
2021/05/12 04:37:59;;;;;;;3.97;1.70;;;;;;;;;;4919010;28;20071;-79
2021/05/12 04:40:26;;;;;;;4.22;1.60;;;;;;;;;;4927121;28;20636;-81
2021/05/12 04:42:52;;;;;;;4.07;1.90;;;;;;;;;;4919392;28;20130;-81
2021/05/12 04:45:19;;;;;;;5.88;1.90;;;;;;;;;;4921609;28;20059;-79
2021/05/12 04:47:55;;;;;;;2.95;1.70;;;;;;;;;;4917374;28;20353;-80
2021/05/12 04:50:23;;;;;;;4.97;1.90;;;;;;;;;;4929912;28;21566;-76
2021/05/12 04:52:50;;;;;;;5.13;1.75;;;;;;;;;;4936302;28;20547;-77
2021/05/12 04:55:16;;;;;;;5.18;1.83;;;;;;;;;;4939835;28;20123;-79
2021/05/12 04:57:43;;;;;;;4.72;1.60;;;;;;;;;;4936575;28;20067;-79
2021/05/12 05:00:12;;;;;;;3.85;1.83;;;;;;;;;;4927606;28;20676;-79
2021/05/12 05:02:39;;;;;;;6.25;1.70;;;;;;;;;;4928301;28;20063;-80
2021/05/12 05:05:09;;;;;;;3.88;1.70;;;;;;;;;;4916109;28;20516;-80
2021/05/12 05:07:36;;;;;;;5.00;2.00;;;;;;;;;;4923094;28;20071;-80
2021/05/12 05:10:02;;;;;;;3.58;1.67;;;;;;;;;;4939240;28;20500;-81
2021/05/12 05:12:29;;;;;;;3.83;1.88;;;;;;;;;;4922687;28;20064;-79
2021/05/12 05:14:56;;;;;;;3.72;1.90;;;;;;;;;;4921528;28;20055;-79
2021/05/12 05:17:41;;;;;;;6.47;1.75;;;;;;;;;;4926239;28;20083;-79
2021/05/12 05:20:08;;;;;;;3.00;1.50;;;;;;;;;;4900955;28;20059;-80
2021/05/12 05:22:36;;;;;;;4.97;1.73;;;;;;;;;;4932174;28;20576;-79
2021/05/12 05:25:03;;;;;;;5.03;1.65;;;;;;;;;;4934190;28;20071;-80
2021/05/12 05:27:30;;;;;;;4.00;1.83;;;;;;;;;;4927198;28;20123;-79
2021/05/12 05:29:56;;;;;;;2.95;1.70;;;;;;;;;;4915473;28;20534;-79
2021/05/12 05:32:23;;;;;;;3.30;1.42;;;;;;;;;;4929598;28;20067;-79
2021/05/12 05:34:49;;;;;;;4.03;1.42;;;;;;;;;;4940763;28;20067;-77
2021/05/12 05:37:16;;;;;;;5.03;1.95;;;;;;;;;;4934479;28;20062;-79
2021/05/12 05:39:42;;;;;;;4.40;1.60;;;;;;;;;;4925115;28;20051;-77
2021/05/12 05:42:09;;;;;;;3.67;1.55;;;;;;;;;;4916552;28;20535;-77
2021/05/12 05:44:36;;;;;;;5.63;1.83;;;;;;;;;;4934134;28;21020;-78
2021/05/12 05:47:03;;;;;;;3.88;1.80;;;;;;;;;;4914449;28;20060;-78
2021/05/12 05:49:29;;;;;;;5.63;1.88;;;;;;;;;;4930851;28;20119;-78
2021/05/12 05:51:56;;;;;;;4.97;1.70;;;;;;;;;;4928894;28;20062;-78
2021/05/12 05:54:23;;;;;;;5.43;1.90;;;;;;;;;;4920386;28;20064;-77
2021/05/12 05:56:49;;;;;;;3.08;1.58;;;;;;;;;;4929905;28;20129;-77
2021/05/12 05:59:15;;;;;;;4.80;1.65;;;;;;;;;;4919952;28;20147;-78
2021/05/12 06:01:42;;;;;;;4.85;1.88;;;;;;;;;;4929656;28;20075;-78
2021/05/12 06:04:08;;;;;;;4.07;1.88;;;;;;;;;;4927658;28;20060;-78
2021/05/12 06:06:35;;;;;;;4.55;2.20;;;;;;;;;;4910191;29;20059;-78
2021/05/12 06:09:02;;;;;;;3.65;1.77;;;;;;;;;;4921801;28;20056;-77
2021/05/12 06:11:28;;;;;;;4.45;1.80;;;;;;;;;;4926313;28;20059;-77
2021/05/12 06:13:54;;;;;;;4.93;1.63;;;;;;;;;;4942917;28;20051;-77
2021/05/12 06:16:21;;;;;;;3.47;1.42;;;;;;;;;;4926574;28;20062;-77
2021/05/12 06:18:50;;;;;;;4.63;1.90;;;;;;;;;;4928609;28;20133;-77
2021/05/12 06:21:17;;;;;;;4.70;1.80;;;;;;;;;;4929509;28;20075;-79
2021/05/12 06:23:43;;;;;;;6.43;1.90;;;;;;;;;;4915771;28;20040;-77
2021/05/12 06:26:19;;;;;;;4.45;1.80;;;;;;;;;;4939046;28;20059;-77
2021/05/12 06:28:47;;;;;;;4.03;1.90;;;;;;;;;;4932135;28;20056;-77
2021/05/12 06:31:13;;;;;;;3.20;1.50;;;;;;;;;;4934972;28;20456;-77
2021/05/12 06:33:44;;;;;;;3.10;1.73;;;;;;;;;;4927024;28;20087;-77
2021/05/12 06:36:10;;;;;;;3.92;1.90;;;;;;;;;;4914513;28;20059;-77
2021/05/12 06:38:37;;;;;;;3.90;1.73;;;;;;;;;;4934359;28;20164;-77
2021/05/12 06:41:04;;;;;;;4.30;1.48;;;;;;;;;;4921673;28;20131;-79
2021/05/12 06:43:30;;;;;;;3.47;1.60;;;;;;;;;;4917055;29;20126;-78
2021/05/12 06:45:57;;;;;;;3.28;1.40;;;;;;;;;;4932606;28;20040;-79
2021/05/12 06:48:23;;;;;;;5.43;1.63;;;;;;;;;;4935690;28;20095;-79
2021/05/12 06:50:50;;;;;;;2.95;1.67;;;;;;;;;;4943935;28;20067;-78
2021/05/12 06:53:46;;;;;;;4.35;1.80;;;;;;;;;;4923648;28;20129;-78
2021/05/12 06:56:12;;;;;;;3.85;1.67;;;;;;;;;;4907623;28;20060;-78
2021/05/12 06:58:42;;;;;;;4.80;1.48;;;;;;;;;;4921997;28;20064;-78
2021/05/12 07:01:09;;;;;;;4.43;1.63;;;;;;;;;;4932918;28;20067;-78
2021/05/12 07:03:36;;;;;;;4.43;1.40;;;;;;;;;;4924215;28;20122;-79
2021/05/12 07:06:03;;;;;;;3.35;1.38;;;;;;;;;;4915316;28;20071;-78
2021/05/12 07:08:31;;;;;;;4.57;1.60;;;;;;;;;;4926210;28;20126;-78
2021/05/12 07:10:57;;;;;;;5.45;1.35;;;;;;;;;;4918862;28;20208;-78
2021/05/12 07:13:24;;;;;;;3.92;1.50;;;;;;;;;;4915044;28;20096;-78
2021/05/12 07:15:50;;;;;;;5.70;2.10;;;;;;;;;;4928687;28;20035;-77
2021/05/12 07:18:17;;;;;;;4.55;1.70;;;;;;;;;;4919288;28;20576;-78
2021/05/12 07:20:45;;;;;;;4.32;1.67;;;;;;;;;;4920813;28;20060;-78
2021/05/12 07:23:19;;;;;;;5.18;2.00;;;;;;;;;;4898555;28;20106;-78
2021/05/12 07:25:45;;;;;;;5.38;1.88;;;;;;;;;;4925841;28;20672;-78
2021/05/12 07:28:13;;;;;;;4.25;1.90;;;;;;;;;;4931847;28;20063;-78
2021/05/12 07:30:40;;;;;;;5.28;1.83;;;;;;;;;;4910869;28;20216;-78
2021/05/12 07:33:06;;;;;;;4.45;2.00;;;;;;;;;;4919805;28;20064;-78
2021/05/12 07:35:32;;;;;;;5.88;1.83;;;;;;;;;;4918763;28;20571;-78
2021/05/12 07:37:59;;;;;;;5.75;1.98;;;;;;;;;;4931153;28;20138;-78
2021/05/12 07:40:31;;;;;;;4.15;1.90;;;;;;;;;;4937607;28;20559;-78
2021/05/12 07:42:57;;;;;;;;;;;;;;;;;;4926979;28;20118;-78
2021/05/12 07:45:23;;;;;;;3.88;2.13;;;;;;;;;;4938919;28;20326;-77
2021/05/12 07:47:50;;;;;;;5.40;2.17;;;;;;;;;;4922249;28;20099;-78
2021/05/12 07:50:16;;;;;;;4.82;2.10;;;;;;;;;;4913350;28;20149;-78
2021/05/12 07:52:43;;;;;;;6.45;2.08;;;;;;;;;;4929776;28;20071;-77
2021/05/12 07:55:09;;;;;;;6.88;2.30;;;;;;;;;;4931008;28;20451;-78
2021/05/12 07:57:36;;;;;;;5.53;2.10;;;;;;;;;;4922227;28;20056;-78
2021/05/12 08:00:04;;;;;;;5.07;2.60;;;;;;;;;;4917334;28;20074;-78
2021/05/12 08:02:31;;;;;;;4.45;1.95;;;;;;;;;;4926235;28;20488;-78
2021/05/12 08:04:57;;;;;;;3.25;1.95;;;;;;;;;;4937994;28;20103;-77
2021/05/12 08:07:24;;;;;;;4.57;2.17;;;;;;;;;;4916947;28;20068;-77
2021/05/12 08:09:50;;;;;;;4.30;2.30;;;;;;;;;;4920443;28;20059;-78
2021/05/12 08:12:16;;;;;;;4.35;2.20;;;;;;;;;;4917689;28;20052;-78
2021/05/12 08:14:43;;;;;;;4.00;2.22;;;;;;;;;;4932034;28;20079;-79
2021/05/12 08:17:09;;;;;;;5.40;2.17;;;;;;;;;;4925661;28;20115;-79
2021/05/12 08:19:36;;;;;;;3.88;2.13;;;;;;;;;;4911979;29;20063;-78
2021/05/12 08:22:06;;;;;;;5.85;2.40;;;;;;;;;;4915921;28;20040;-79
2021/05/12 08:24:32;;;;;;;5.07;2.40;;;;;;;;;;4922295;28;20076;-79
2021/05/12 08:27:02;;;;;;;6.60;2.17;;;;;;;;;;4917524;28;20496;-80
2021/05/12 08:29:31;;;;;;;4.95;2.28;;;;;;;;;;4926511;28;20134;-79
2021/05/12 08:31:58;;;;;;;5.60;2.72;;;;;;;;;;4921978;28;20059;-80
2021/05/12 08:34:27;;;;;;;5.05;2.28;;;;;;;;;;4914955;28;20772;-79
2021/05/12 08:36:55;;;;;;;4.72;2.53;;;;;;;;;;4935692;28;20059;-79
2021/05/12 08:39:21;;;;;;;6.13;2.60;;;;;;;;;;4938700;28;20064;-79
2021/05/12 08:41:49;;;;;;;4.38;2.25;;;;;;;;;;4934964;28;20067;-80
2021/05/12 08:44:16;;;;;;;5.15;2.40;;;;;;;;;;4920890;28;20102;-79
2021/05/12 08:46:43;;;;;;;5.70;2.40;;;;;;;;;;4918439;28;20091;-79
2021/05/12 08:49:10;;;;;;;6.28;2.65;;;;;;;;;;4924102;28;20039;-79
2021/05/12 08:51:37;;;;;;;5.55;2.60;;;;;;;;;;4925101;28;20027;-79
2021/05/12 08:54:04;;;;;;;5.30;2.47;;;;;;;;;;4920292;28;20424;-79
2021/05/12 08:56:31;;;;;;;5.90;2.25;;;;;;;;;;4916316;29;20060;-78
2021/05/12 08:58:58;;;;;;;4.65;2.42;;;;;;;;;;4933203;28;20071;-78
2021/05/12 09:01:25;;;;;;;4.85;2.30;;;;;;;;;;4915504;28;20214;-78
2021/05/12 09:03:52;;;;;;;4.88;2.60;;;;;;;;;;4923821;28;20035;-77
2021/05/12 09:06:18;;;;;;;5.65;2.50;;;;;;;;;;4914392;28;20059;-78
2021/05/12 09:08:47;;;;;;;5.55;2.33;;;;;;;;;;4937593;28;20451;-79
2021/05/12 09:11:17;;;;;;;5.05;2.50;;;;;;;;;;4925769;28;20059;-79
2021/05/12 09:13:46;;;;;;;4.25;2.40;;;;;;;;;;4934250;28;20075;-79
2021/05/12 09:16:23;;;;;;;7.38;2.80;;;;;;;;;;4940734;28;20067;-78
2021/05/12 09:18:59;;;;;;;5.38;2.75;;;;;;;;;;4920808;28;20052;-78
2021/05/12 09:21:40;;;;;;;5.47;2.50;;;;;;;;;;4915794;29;20351;-79
2021/05/12 09:24:11;;;;;;;6.45;2.40;;;;;;;;;;4942044;28;20616;-78
2021/05/12 09:26:38;;;;;;;6.40;2.42;;;;;;;;;;4944334;28;20531;-79
2021/05/12 09:29:05;;;;;;;4.57;2.30;;;;;;;;;;4923399;28;20071;-79
2021/05/12 09:31:37;;;;;;;4.82;2.60;;;;;;;;;;4924703;28;20551;-79
2021/05/12 09:34:06;;;;;;;6.35;2.20;;;;;;;;;;4928695;28;20063;-79
2021/05/12 09:36:32;;;;;;;6.65;2.50;;;;;;;;;;4934644;28;20405;-77
2021/05/12 09:38:59;;;;;;;5.78;2.22;;;;;;;;;;4933936;28;20435;-77
2021/05/12 09:41:36;;;;;;;5.38;2.58;;;;;;;;;;4916846;28;20398;-77
2021/05/12 09:44:04;;;;;;;5.72;2.50;;;;;;;;;;4930889;28;20059;-77
2021/05/12 09:46:34;;;;;;;4.97;2.40;;;;;;;;;;4923222;28;20202;-76
2021/05/12 09:49:00;;;;;;;5.32;2.50;;;;;;;;;;4922262;28;20039;-77
2021/05/12 09:51:28;;;;;;;9.10;2.90;;;;;;;;;;4920440;28;20056;-77
2021/05/12 09:54:00;;;;;;;6.60;2.28;;;;;;;;;;4919411;28;20523;-78
2021/05/12 09:56:40;;;;;;;6.68;2.58;;;;;;;;;;4918343;28;20184;-77
2021/05/12 09:59:08;;;;;;;6.45;2.70;;;;;;;;;;4919810;28;20107;-75
2021/05/12 10:01:38;;;;;;;8.25;2.42;;;;;;;;;;4914740;28;20063;-78
2021/05/12 10:04:27;;;;;;;4.47;2.40;;;;;;;;;;4918779;28;20473;-76
2021/05/12 10:07:00;;;;;;;6.78;2.97;;;;;;;;;;4903850;29;20482;-76
2021/05/12 10:09:28;;;;;;;5.40;2.72;;;;;;;;;;4918429;28;20609;-76
2021/05/12 10:12:00;;;;;;;7.07;2.75;;;;;;;;;;4923202;28;20055;-76
2021/05/12 10:14:27;;;;;;;5.93;2.70;;;;;;;;;;4920008;28;21205;-77
2021/05/12 10:16:53;;;;;;;8.75;3.05;;;;;;;;;;4923457;28;20060;-77
2021/05/12 10:19:20;;;;;;;5.50;2.47;;;;;;;;;;4921060;28;20055;-77
2021/05/12 10:21:47;;;;;;;4.68;2.75;;;;;;;;;;4916274;28;20123;-78
2021/05/12 10:24:14;;;;;;;5.63;2.42;;;;;;;;;;4930733;28;20039;-81
2021/05/12 10:26:42;;;;;;;5.47;2.30;;;;;;;;;;4927116;28;20712;-80
2021/05/12 10:29:09;;;;;;;3.90;2.10;;;;;;;;;;4942512;28;20036;-80
2021/05/12 10:31:37;;;;;;;4.93;2.28;;;;;;;;;;4935259;28;20117;-80
2021/05/12 10:34:04;;;;;;;4.85;2.42;;;;;;;;;;4920173;28;20068;-81
2021/05/12 10:36:30;;;;;;;5.97;2.50;;;;;;;;;;4939910;28;20122;-80
2021/05/12 10:38:58;;;;;;;5.25;2.13;;;;;;;;;;4936985;28;20064;-80
2021/05/12 10:41:36;;;;;;;5.68;2.20;;;;;;;;;;4932135;28;20066;-80
2021/05/12 10:44:08;;;;;;;5.57;2.50;;;;;;;;;;4928804;28;20039;-80
2021/05/12 10:46:59;;;;;;;7.00;2.33;;;;;;;;;;4942664;28;20111;-80
2021/05/12 10:49:26;;;;;;;5.00;2.30;;;;;;;;;;4906889;29;20079;-80
2021/05/12 10:51:53;;;;;;;6.70;2.08;;;;;;;;;;4931985;28;20046;-80
2021/05/12 10:54:38;;;;;;;5.03;1.88;;;;;;;;;;4920779;28;20209;-80
2021/05/12 10:57:08;;;;;;;4.85;2.00;;;;;;;;;;4920026;28;20567;-80
2021/05/12 10:59:52;;;;;;;5.45;2.15;;;;;;;;;;4925982;28;20063;-80
2021/05/12 11:02:20;;;;;;;4.90;2.08;;;;;;;;;;4933248;28;22465;-80
2021/05/12 11:05:03;;;;;;;3.85;2.05;;;;;;;;;;4938932;28;20063;-80
2021/05/12 11:07:32;;;;;;;3.67;1.90;;;;;;;;;;4933194;28;20190;-79
2021/05/12 11:09:59;;;;;;;3.20;1.70;;;;;;;;;;4932147;28;20511;-80
2021/05/12 11:12:33;;;;;;;4.53;2.30;;;;;;;;;;4925687;28;20050;-79
2021/05/12 11:15:00;;;;;;;5.55;1.98;;;;;;;;;;4926347;29;21157;-79
2021/05/12 11:17:43;;;;;;;5.78;1.90;;;;;;;;;;4931050;28;20106;-80
2021/05/12 11:20:13;;;;;;;6.18;2.10;;;;;;;;;;4924815;28;20083;-79
2021/05/12 11:22:45;;;;;;;6.43;1.67;;;;;;;;;;4927458;28;20055;-79
2021/05/12 11:28:13;;;;;;;5.72;2.13;;;;;;;;;;4934635;28;20066;-79
2021/05/12 11:33:30;;;;;;;7.78;2.20;;;;;;;;;;4939629;28;20054;-78
2021/05/12 11:36:07;;;;;;;6.10;1.85;;;;;;;;;;4926249;28;20060;-78
2021/05/12 11:38:34;;;;;;;5.15;2.03;;;;;;;;;;4933982;28;20614;-79
2021/05/12 11:41:08;;;;;;;4.78;1.95;;;;;;;;;;4920038;28;20060;-78
2021/05/12 11:43:46;;;;;;;5.43;1.77;;;;;;;;;;4930612;28;20063;-79
2021/05/12 11:46:24;;;;;;;4.03;1.80;;;;;;;;;;4924246;28;20473;-79
2021/05/12 11:48:52;;;;;;;3.42;1.52;;;;;;;;;;4937213;28;20752;-79
2021/05/12 11:51:27;;;;;;;4.88;2.10;;;;;;;;;;4916486;28;20063;-79
2021/05/12 11:53:54;;;;;;;6.43;2.33;;;;;;;;;;4938182;28;20048;-78
2021/05/12 11:56:21;;;;;;;6.93;2.22;;;;;;;;;;4921980;28;20115;-78
2021/05/12 11:59:02;;;;;;;5.90;2.63;;;;;;;;;;4920799;28;20038;-78
2021/05/12 12:01:30;;;;;;;5.55;2.10;;;;;;;;;;4920088;28;20810;-78
2021/05/12 12:04:19;;;;;;;4.60;2.08;;;;;;;;;;4917873;28;20063;-78
2021/05/12 12:06:47;;;;;;;6.53;2.45;;;;;;;;;;4931157;28;20303;-80
2021/05/12 12:09:14;;;;;;;4.82;2.30;;;;;;;;;;4918433;28;20122;-78
2021/05/12 12:11:41;;;;;;;4.93;2.30;;;;;;;;;;4917459;28;20094;-79
2021/05/12 12:14:08;;;;;;;4.00;1.98;;;;;;;;;;4919760;28;20079;-79
2021/05/12 12:16:35;;;;;;;3.63;1.88;;;;;;;;;;4948148;28;20071;-78
2021/05/12 12:19:09;;;;;;;4.05;2.10;;;;;;;;;;4937808;28;20571;-78
2021/05/12 12:21:35;;;;;;;6.40;2.15;;;;;;;;;;4925887;28;20492;-79
2021/05/12 12:24:08;;;;;;;4.80;2.20;;;;;;;;;;4931740;28;20114;-79
2021/05/12 12:26:36;;;;;;;4.07;2.42;;;;;;;;;;4914938;28;20063;-79
2021/05/12 12:29:05;;;;;;;3.88;2.03;;;;;;;;;;4921914;28;20126;-79
2021/05/12 12:31:43;;;;;;;6.20;2.20;;;;;;;;;;4914219;28;20560;-79
2021/05/12 12:34:20;;;;;;;3.97;2.15;;;;;;;;;;4922491;28;20181;-79
2021/05/12 12:36:47;;;;;;;5.22;2.17;;;;;;;;;;4938649;28;20118;-79
2021/05/12 12:39:13;;;;;;;3.25;1.92;;;;;;;;;;4920259;28;20095;-79
2021/05/12 12:41:40;;;;;;;4.63;2.30;;;;;;;;;;4920908;28;20059;-79
2021/05/12 12:44:06;;;;;;;3.65;2.17;;;;;;;;;;4933862;28;20503;-78
2021/05/12 12:46:33;;;;;;;5.90;2.28;;;;;;;;;;4937571;28;20170;-79
2021/05/12 12:48:59;;;;;;;4.47;2.22;;;;;;;;;;4924886;28;20071;-80
2021/05/12 12:51:35;;;;;;;4.47;2.33;;;;;;;;;;4940060;28;20515;-78
2021/05/12 12:54:01;;;;;;;4.38;2.15;;;;;;;;;;4930124;28;20780;-78
2021/05/12 12:56:28;;;;;;;3.83;2.05;;;;;;;;;;4919943;28;20102;-77
2021/05/12 12:59:05;;;;;;;5.05;2.22;;;;;;;;;;4918297;28;20058;-78
2021/05/12 13:01:36;;;;;;;4.22;2.22;;;;;;;;;;4918092;28;21554;-77
2021/05/12 13:04:19;;;;;;;4.30;2.17;;;;;;;;;;4923793;28;20070;-78
2021/05/12 13:07:06;;;;;;;4.63;2.42;;;;;;;;;;4920687;28;20117;-78
2021/05/12 13:09:32;;;;;;;4.85;2.30;;;;;;;;;;4927249;28;20094;-78
2021/05/12 13:11:59;;;;;;;4.65;2.30;;;;;;;;;;4934304;28;20547;-79
2021/05/12 13:14:26;;;;;;;5.90;2.75;;;;;;;;;;4919728;28;20076;-78
2021/05/12 13:17:03;;;;;;;4.25;2.10;;;;;;;;;;4922772;28;20116;-79
2021/05/12 13:19:29;;;;;;;5.20;2.17;;;;;;;;;;4918369;28;20142;-79
2021/05/12 13:21:58;;;;;;;4.28;2.33;;;;;;;;;;4941442;28;20724;-80
2021/05/12 13:24:32;;;;;;;5.47;2.60;;;;;;;;;;4925629;28;20036;-80
2021/05/12 13:27:05;;;;;;;4.55;2.50;;;;;;;;;;4934928;28;20575;-80
2021/05/12 13:29:31;;;;;;;4.55;2.40;;;;;;;;;;4919334;28;20455;-81
2021/05/12 13:31:58;;;;;;;4.95;2.45;;;;;;;;;;4939562;28;20040;-81
2021/05/12 13:34:27;;;;;;;4.55;2.45;;;;;;;;;;4936443;28;20063;-81
2021/05/12 13:36:56;;;;;;;4.35;2.20;;;;;;;;;;4936001;28;20139;-81
2021/05/12 13:39:23;;;;;;;4.28;2.15;;;;;;;;;;4925505;28;20119;-81
2021/05/12 13:41:50;;;;;;;5.30;2.70;;;;;;;;;;4921170;28;20091;-82
2021/05/12 13:44:17;;;;;;;4.25;2.40;;;;;;;;;;4915459;28;20064;-76
2021/05/12 13:46:44;;;;;;;5.95;2.47;;;;;;;;;;4938055;28;20119;-79
2021/05/12 13:49:10;;;;;;;3.80;2.10;;;;;;;;;;4938048;28;20456;-79
2021/05/12 13:51:41;;;;;;;4.53;2.45;;;;;;;;;;4915652;28;20811;-86
2021/05/12 13:54:25;;;;;;;7.07;2.70;;;;;;;;;;4917127;28;20067;-83
2021/05/12 13:59:52;;;;;;;5.22;2.47;;;;;;;;;;4931773;28;20628;-85
2021/05/12 14:02:34;;;;;;;5.07;2.47;;;;;;;;;;4919382;28;20067;-84
2021/05/12 14:05:03;;;;;;;7.18;2.60;;;;;;;;;;4929277;28;20063;-84
2021/05/12 14:07:31;;;;;;;3.13;2.08;;;;;;;;;;4922087;28;21462;-84
2021/05/12 14:09:58;;;;;;;7.72;2.53;;;;;;;;;;4937587;28;20283;-84
2021/05/12 14:12:28;;;;;;;5.35;2.60;;;;;;;;;;4933007;28;20074;-85
2021/05/12 14:15:02;;;;;;;5.60;3.13;;;;;;;;;;4923385;28;20141;-84
2021/05/12 14:17:29;;;;;;;4.88;2.50;;;;;;;;;;4923555;28;20087;-85
2021/05/12 14:19:57;;;;;;;4.60;3.08;;;;;;;;;;4926950;28;20059;-85
2021/05/12 14:22:23;;;;;;;7.00;2.58;;;;;;;;;;4928890;28;20040;-84
2021/05/12 14:24:50;;;;;;;4.35;2.45;;;;;;;;;;4939514;28;20058;-85
2021/05/12 14:27:17;;;;;;;5.10;3.08;;;;;;;;;;4922924;28;20502;-85
2021/05/12 14:29:46;;;;;;;5.75;2.83;;;;;;;;;;4920450;28;20159;-85
2021/05/12 14:32:12;;;;;;;4.93;2.58;;;;;;;;;;4927083;28;20103;-84
2021/05/12 14:34:39;;;;;;;4.03;2.60;;;;;;;;;;4934993;28;20052;-83
2021/05/12 14:37:06;;;;;;;6.72;2.95;;;;;;;;;;4926471;28;20031;-84
2021/05/12 14:39:35;;;;;;;6.10;2.75;;;;;;;;;;4924619;28;20043;-84
2021/05/12 14:42:06;;;;;;;4.97;2.80;;;;;;;;;;4933034;28;20127;-84
2021/05/12 14:44:33;;;;;;;6.15;3.08;;;;;;;;;;4923812;29;20071;-85
2021/05/12 14:46:59;;;;;;;5.18;2.85;;;;;;;;;;4942963;28;20083;-85
2021/05/12 14:49:28;;;;;;;4.60;2.75;;;;;;;;;;4941436;28;20966;-84
2021/05/12 14:54:36;;;;;;;6.38;3.55;;;;;;;;;;4914131;28;20085;-85
2021/05/12 15:05:22;;;;;;;4.57;2.75;;;;;;;;;;4932728;28;20064;-84
2021/05/12 15:07:50;;;;;;;4.18;2.60;;;;;;;;;;4913408;29;20037;-85
2021/05/12 15:10:17;;;;;;;6.05;3.05;;;;;;;;;;4917253;28;20111;-85